createdAt,value
2022-10-02T00:00:13.279Z,64.27
2022-10-02T00:01:13.600Z,64.14
2022-10-02T00:02:13.887Z,64.14
2022-10-02T00:03:14.159Z,64.14
2022-10-02T00:04:14.575Z,64.14
2022-10-02T00:05:14.773Z,64.14
2022-10-02T00:06:15.103Z,64.14
2022-10-02T00:07:15.393Z,64.14
2022-10-02T00:08:15.711Z,64.14
2022-10-02T00:09:16.004Z,64.14
2022-10-02T00:10:16.334Z,64.14
2022-10-02T00:11:16.636Z,64.14
2022-10-02T00:12:16.934Z,64.24
2022-10-02T00:13:17.212Z,64.24
2022-10-02T00:14:17.550Z,64.24
2022-10-02T00:15:17.882Z,64.24
2022-10-02T00:16:18.256Z,64.24
2022-10-02T00:17:18.432Z,64.24
2022-10-02T00:18:18.731Z,64.24
2022-10-02T00:19:19.033Z,64.34
2022-10-02T00:20:19.343Z,64.34
2022-10-02T00:21:19.645Z,64.34
2022-10-02T00:22:19.921Z,64.34
2022-10-02T00:23:20.264Z,64.34
2022-10-02T00:24:20.563Z,64.34
2022-10-02T00:25:20.841Z,64.34
2022-10-02T00:26:21.181Z,64.34
2022-10-02T00:27:21.463Z,64.34
2022-10-02T00:28:21.812Z,64.34
2022-10-02T00:29:22.099Z,64.31
2022-10-02T00:30:22.417Z,64.31
2022-10-02T00:31:22.744Z,64.31
2022-10-02T00:32:23.017Z,64.31
2022-10-02T00:33:23.331Z,64.31
2022-10-02T00:34:23.648Z,64.31
2022-10-02T00:35:23.932Z,64.31
2022-10-02T00:36:24.304Z,64.31
2022-10-02T00:37:24.641Z,64.31
2022-10-02T00:38:24.942Z,64.31
2022-10-02T00:39:25.274Z,64.41
2022-10-02T00:40:25.628Z,64.41
2022-10-02T00:41:25.838Z,64.41
2022-10-02T00:42:26.130Z,64.41
2022-10-02T00:43:26.447Z,64.51
2022-10-02T00:44:26.775Z,64.51
2022-10-02T00:45:27.174Z,64.51
2022-10-02T00:46:27.385Z,64.51
2022-10-02T00:47:27.680Z,64.51
2022-10-02T00:48:27.980Z,64.51
2022-10-02T00:49:28.271Z,64.51
2022-10-02T00:50:28.547Z,64.51
2022-10-02T00:51:28.914Z,64.51
2022-10-02T00:52:29.238Z,64.48
2022-10-02T00:53:29.540Z,64.48
2022-10-02T00:54:29.821Z,64.58
2022-10-02T00:55:30.162Z,64.58
2022-10-02T00:56:30.476Z,64.48
2022-10-02T00:57:30.844Z,64.48
2022-10-02T00:58:31.028Z,64.48
2022-10-02T00:59:31.390Z,64.48
2022-10-02T01:00:31.555Z,64.58
2022-10-02T01:01:31.854Z,64.58
2022-10-02T01:02:32.186Z,64.58
2022-10-02T01:03:32.444Z,64.48
2022-10-02T01:04:32.765Z,64.48
2022-10-02T01:05:33.076Z,64.48
2022-10-02T01:06:33.644Z,64.58
2022-10-02T01:07:33.734Z,64.58
2022-10-02T01:08:34.026Z,64.58
2022-10-02T01:09:34.317Z,64.58
2022-10-02T01:10:34.653Z,64.69
2022-10-02T01:11:34.975Z,64.69
2022-10-02T01:12:35.275Z,64.69
2022-10-02T01:13:35.564Z,64.69
2022-10-02T01:14:35.865Z,64.69
2022-10-02T01:15:36.176Z,64.65
2022-10-02T01:16:36.702Z,64.76
2022-10-02T01:17:36.815Z,64.76
2022-10-02T01:18:37.129Z,64.76
2022-10-02T01:19:37.457Z,64.76
2022-10-02T01:20:37.771Z,64.76
2022-10-02T01:21:38.068Z,64.76
2022-10-02T01:22:38.395Z,64.76
2022-10-02T01:23:38.704Z,64.76
2022-10-02T01:24:39.005Z,64.65
2022-10-02T01:25:39.325Z,64.65
2022-10-02T01:26:39.645Z,64.65
2022-10-02T01:27:39.965Z,64.76
2022-10-02T01:28:40.299Z,64.65
2022-10-02T01:29:40.619Z,64.65
2022-10-02T01:30:40.908Z,64.65
2022-10-02T01:31:41.275Z,64.76
2022-10-02T01:32:41.526Z,64.76
2022-10-02T01:33:41.846Z,64.76
2022-10-02T01:34:42.177Z,64.73
2022-10-02T01:35:42.458Z,64.73
2022-10-02T01:36:42.827Z,64.73
2022-10-02T01:37:43.134Z,64.73
2022-10-02T01:38:43.426Z,64.73
2022-10-02T01:39:43.705Z,64.73
2022-10-02T01:40:43.999Z,64.73
2022-10-02T01:41:44.325Z,64.73
2022-10-02T01:42:44.624Z,64.73
2022-10-02T01:43:44.939Z,64.73
2022-10-02T01:44:45.259Z,64.73
2022-10-02T01:45:45.635Z,64.73
2022-10-02T01:46:45.796Z,64.73
2022-10-02T01:47:53.784Z,64.73
2022-10-02T01:48:46.320Z,64.73
2022-10-02T01:49:46.619Z,64.93
2022-10-02T01:50:46.932Z,65.03
2022-10-02T01:51:47.294Z,65.03
2022-10-02T01:52:47.540Z,65.13
2022-10-02T01:53:47.869Z,65.13
2022-10-02T01:54:48.169Z,65.13
2022-10-02T01:55:48.479Z,65.13
2022-10-02T01:56:48.799Z,65.03
2022-10-02T01:57:49.101Z,65.03
2022-10-02T01:58:49.419Z,65.03
2022-10-02T01:59:49.720Z,65.03
2022-10-02T02:00:57.572Z,65.03
2022-10-02T02:01:50.416Z,65.03
2022-10-02T02:02:50.673Z,65.03
2022-10-02T02:03:51.035Z,65.03
2022-10-02T02:04:51.305Z,65.13
2022-10-02T02:05:51.619Z,65.13
2022-10-02T02:06:51.993Z,65.13
2022-10-02T02:07:52.508Z,65.13
2022-10-02T02:08:52.600Z,65.13
2022-10-02T02:09:52.918Z,65.13
2022-10-02T02:10:53.247Z,65.13
2022-10-02T02:11:53.555Z,65.13
2022-10-02T02:12:53.814Z,65.13
2022-10-02T02:13:54.128Z,65.13
2022-10-02T02:14:54.485Z,65.13
2022-10-02T02:15:54.741Z,65.13
2022-10-02T02:16:55.144Z,65.13
2022-10-02T02:17:55.400Z,65.13
2022-10-02T02:18:55.729Z,65.13
2022-10-02T02:19:56.018Z,65.13
2022-10-02T02:20:56.316Z,65.13
2022-10-02T02:21:56.639Z,65.13
2022-10-02T02:22:56.922Z,65.13
2022-10-02T02:23:57.236Z,65.13
2022-10-02T02:24:57.560Z,65.13
2022-10-02T02:25:57.866Z,65.13
2022-10-02T02:26:58.220Z,65.13
2022-10-02T02:27:58.559Z,65.13
2022-10-02T02:28:58.838Z,65.13
2022-10-02T02:29:59.189Z,65.13
2022-10-02T02:30:59.472Z,65.13
2022-10-02T02:31:59.942Z,65.13
2022-10-02T02:33:00.111Z,65.13
2022-10-02T02:34:00.396Z,65.23
2022-10-02T02:35:00.718Z,65.13
2022-10-02T02:36:01.023Z,65.23
2022-10-02T02:37:01.353Z,65.23
2022-10-02T02:38:01.638Z,65.23
2022-10-02T02:39:01.929Z,65.23
2022-10-02T02:40:02.227Z,65.23
2022-10-02T02:41:02.512Z,65.23
2022-10-02T02:42:02.846Z,65.23
2022-10-02T02:43:03.115Z,65.23
2022-10-02T02:44:03.443Z,65.23
2022-10-02T02:45:03.752Z,65.23
2022-10-02T02:46:04.161Z,65.33
2022-10-02T02:47:04.369Z,65.33
2022-10-02T02:48:04.638Z,65.33
2022-10-02T02:49:04.950Z,65.33
2022-10-02T02:50:05.276Z,65.33
2022-10-02T02:51:05.601Z,65.43
2022-10-02T02:52:06.792Z,65.43
2022-10-02T02:53:06.265Z,65.43
2022-10-02T02:54:06.583Z,65.43
2022-10-02T02:55:06.885Z,65.53
2022-10-02T02:56:07.224Z,65.53
2022-10-02T02:57:07.513Z,65.53
2022-10-02T02:58:07.801Z,65.53
2022-10-02T02:59:08.121Z,65.53
2022-10-02T03:00:08.443Z,65.53
2022-10-02T03:01:08.815Z,65.53
2022-10-02T03:02:09.181Z,65.53
2022-10-02T03:03:09.365Z,65.53
2022-10-02T03:04:09.687Z,65.64
2022-10-02T03:05:10.017Z,65.64
2022-10-02T03:06:10.322Z,65.53
2022-10-02T03:07:10.616Z,65.64
2022-10-02T03:08:10.905Z,65.53
2022-10-02T03:09:11.204Z,65.53
2022-10-02T03:10:11.527Z,65.53
2022-10-02T03:11:11.836Z,65.53
2022-10-02T03:12:12.163Z,65.53
2022-10-02T03:13:12.455Z,65.53
2022-10-02T03:14:12.766Z,65.53
2022-10-02T03:15:13.086Z,65.53
2022-10-02T03:16:13.428Z,65.53
2022-10-02T03:17:13.741Z,65.53
2022-10-02T03:18:14.030Z,65.53
2022-10-02T03:19:14.334Z,65.53
2022-10-02T03:20:14.653Z,65.53
2022-10-02T03:21:14.965Z,65.64
2022-10-02T03:22:15.297Z,65.61
2022-10-02T03:23:15.577Z,65.61
2022-10-02T03:24:15.899Z,65.61
2022-10-02T03:25:16.224Z,65.61
2022-10-02T03:26:16.527Z,65.61
2022-10-02T03:27:16.859Z,65.61
2022-10-02T03:28:31.762Z,65.61
2022-10-02T03:29:18.400Z,65.50
2022-10-02T03:30:17.737Z,65.50
2022-10-02T03:31:18.065Z,65.50
2022-10-02T03:32:18.370Z,65.50
2022-10-02T03:33:18.651Z,65.50
2022-10-02T03:34:18.952Z,65.50
2022-10-02T03:35:19.264Z,65.50
2022-10-02T03:36:19.597Z,65.50
2022-10-02T03:37:19.929Z,65.50
2022-10-02T03:38:20.234Z,65.50
2022-10-02T03:39:25.319Z,65.50
2022-10-02T03:40:21.763Z,65.40
2022-10-02T03:41:21.097Z,65.40
2022-10-02T03:42:21.413Z,65.40
2022-10-02T03:43:21.716Z,65.40
2022-10-02T03:44:22.038Z,65.50
2022-10-02T03:45:46.166Z,65.50
2022-10-02T03:46:23.664Z,65.50
2022-10-02T03:47:22.887Z,65.50
2022-10-02T03:48:23.151Z,65.50
2022-10-02T03:49:23.481Z,65.50
2022-10-02T03:50:23.785Z,65.50
2022-10-02T03:51:24.112Z,65.50
2022-10-02T03:52:24.419Z,65.50
2022-10-02T03:53:24.729Z,65.50
2022-10-02T03:54:25.049Z,65.50
2022-10-02T03:55:25.367Z,65.50
2022-10-02T03:56:25.680Z,65.50
2022-10-02T03:57:25.999Z,65.50
2022-10-02T03:58:26.306Z,65.50
2022-10-02T03:59:26.623Z,65.50
2022-10-02T04:00:26.928Z,65.50
2022-10-02T04:01:27.341Z,65.50
2022-10-02T04:02:27.476Z,65.50
2022-10-02T04:03:27.823Z,65.50
2022-10-02T04:04:28.095Z,65.50
2022-10-02T04:05:28.410Z,65.50
2022-10-02T04:06:28.731Z,65.50
2022-10-02T04:07:29.102Z,65.50
2022-10-02T04:08:29.353Z,65.50
2022-10-02T04:09:29.650Z,65.50
2022-10-02T04:10:29.962Z,65.50
2022-10-02T04:11:30.227Z,65.50
2022-10-02T04:12:30.602Z,65.50
2022-10-02T04:13:30.882Z,65.50
2022-10-02T04:14:31.187Z,65.50
2022-10-02T04:15:31.499Z,65.50
2022-10-02T04:16:31.833Z,65.50
2022-10-02T04:17:32.147Z,65.50
2022-10-02T04:18:32.421Z,65.50
2022-10-02T04:19:32.733Z,65.50
2022-10-02T04:20:33.120Z,65.61
2022-10-02T04:21:33.397Z,65.61
2022-10-02T04:22:33.733Z,65.61
2022-10-02T04:23:34.009Z,65.61
2022-10-02T04:24:34.321Z,65.61
2022-10-02T04:25:34.652Z,65.61
2022-10-02T04:26:35.315Z,65.61
2022-10-02T04:27:35.262Z,65.61
2022-10-02T04:28:35.532Z,65.61
2022-10-02T04:29:35.853Z,65.61
2022-10-02T04:30:36.167Z,65.70
2022-10-02T04:31:36.552Z,65.61
2022-10-02T04:32:36.823Z,65.70
2022-10-02T04:33:38.524Z,65.70
2022-10-02T04:34:37.421Z,65.61
2022-10-02T04:35:37.733Z,65.70
2022-10-02T04:36:38.176Z,65.70
2022-10-02T04:37:38.404Z,65.70
2022-10-02T04:38:38.725Z,65.70
2022-10-02T04:39:41.509Z,65.70
2022-10-02T04:40:39.300Z,65.70
2022-10-02T04:41:39.610Z,65.70
2022-10-02T04:42:39.934Z,65.70
2022-10-02T04:43:40.232Z,65.70
2022-10-02T04:44:40.502Z,65.70
2022-10-02T04:45:40.898Z,65.70
2022-10-02T04:46:41.095Z,65.70
2022-10-02T04:47:41.380Z,65.70
2022-10-02T04:48:41.651Z,65.70
2022-10-02T04:49:41.990Z,65.70
2022-10-02T04:50:42.266Z,65.70
2022-10-02T04:51:42.628Z,65.70
2022-10-02T04:52:42.926Z,65.70
2022-10-02T04:53:43.194Z,65.70
2022-10-02T04:54:43.521Z,65.70
2022-10-02T04:55:43.791Z,65.70
2022-10-02T04:56:44.106Z,65.70
2022-10-02T04:57:44.435Z,65.70
2022-10-02T04:58:44.701Z,65.70
2022-10-02T04:59:45.026Z,65.81
2022-10-02T05:00:45.391Z,65.81
2022-10-02T05:01:45.900Z,65.81
2022-10-02T05:02:46.010Z,65.81
2022-10-02T05:03:46.313Z,65.81
2022-10-02T05:04:46.648Z,65.81
2022-10-02T05:05:46.966Z,65.81
2022-10-02T05:06:47.282Z,65.81
2022-10-02T05:07:47.602Z,65.81
2022-10-02T05:08:47.927Z,65.81
2022-10-02T05:09:48.233Z,65.81
2022-10-02T05:10:48.557Z,65.81
2022-10-02T05:11:48.878Z,65.81
2022-10-02T05:12:49.176Z,65.81
2022-10-02T05:13:49.480Z,65.91
2022-10-02T05:14:49.739Z,65.91
2022-10-02T05:15:50.094Z,65.91
2022-10-02T05:16:50.309Z,65.91
2022-10-02T05:17:50.585Z,65.91
2022-10-02T05:18:50.937Z,65.91
2022-10-02T05:19:51.208Z,65.91
2022-10-02T05:20:51.631Z,65.91
2022-10-02T05:21:51.766Z,65.91
2022-10-02T05:22:52.076Z,65.91
2022-10-02T05:23:52.441Z,65.91
2022-10-02T05:24:52.781Z,65.91
2022-10-02T05:25:53.036Z,65.91
2022-10-02T05:26:53.356Z,65.91
2022-10-02T05:27:53.758Z,65.91
2022-10-02T05:28:54.023Z,65.91
2022-10-02T05:29:54.344Z,66.01
2022-10-02T05:30:54.678Z,66.01
2022-10-02T05:31:55.023Z,66.01
2022-10-02T05:32:55.345Z,66.01
2022-10-02T05:33:55.690Z,66.01
2022-10-02T05:34:56.029Z,66.01
2022-10-02T05:35:56.369Z,66.01
2022-10-02T05:36:56.723Z,66.01
2022-10-02T05:37:57.045Z,66.01
2022-10-02T05:38:57.375Z,66.01
2022-10-02T05:39:57.716Z,66.01
2022-10-02T05:40:58.044Z,66.01
2022-10-02T05:41:58.421Z,66.01
2022-10-02T05:42:58.756Z,66.01
2022-10-02T05:43:59.026Z,66.01
2022-10-02T05:44:59.392Z,66.01
2022-10-02T05:45:59.696Z,66.01
2022-10-02T05:47:00.071Z,66.01
2022-10-02T05:48:00.392Z,66.01
2022-10-02T05:49:00.700Z,66.01
2022-10-02T05:50:00.921Z,66.01
2022-10-02T05:51:01.246Z,66.01
2022-10-02T05:52:01.589Z,66.01
2022-10-02T05:53:01.955Z,66.01
2022-10-02T05:54:02.247Z,66.01
2022-10-02T05:55:02.599Z,66.01
2022-10-02T05:56:02.849Z,66.01
2022-10-02T05:57:03.146Z,66.01
2022-10-02T05:58:03.406Z,66.01
2022-10-02T05:59:03.714Z,66.01
2022-10-02T06:00:04.023Z,66.01
2022-10-02T06:01:04.292Z,66.01
2022-10-02T06:02:04.511Z,65.88
2022-10-02T06:03:04.738Z,65.88
2022-10-02T06:04:05.043Z,65.88
2022-10-02T06:05:05.271Z,65.88
2022-10-02T06:06:05.508Z,65.88
2022-10-02T06:07:05.741Z,65.78
2022-10-02T06:08:05.981Z,65.78
2022-10-02T06:09:06.278Z,65.78
2022-10-02T06:10:06.641Z,65.78
2022-10-02T06:11:06.871Z,65.78
2022-10-02T06:12:07.101Z,65.78
2022-10-02T06:13:07.357Z,65.78
2022-10-02T06:14:07.661Z,65.78
2022-10-02T06:15:07.897Z,65.78
2022-10-02T06:16:08.176Z,65.78
2022-10-02T06:17:08.368Z,65.67
2022-10-02T06:18:08.612Z,65.67
2022-10-02T06:19:08.930Z,65.64
2022-10-02T06:20:09.138Z,65.75
2022-10-02T06:21:09.522Z,65.75
2022-10-02T06:22:09.854Z,65.64
2022-10-02T06:23:10.149Z,65.64
2022-10-02T06:24:10.502Z,65.64
2022-10-02T06:25:10.742Z,65.64
2022-10-02T06:26:10.950Z,65.64
2022-10-02T06:27:11.313Z,65.64
2022-10-02T06:28:11.717Z,65.64
2022-10-02T06:29:15.991Z,65.64
2022-10-02T06:30:13.204Z,65.64
2022-10-02T06:31:12.468Z,65.64
2022-10-02T06:32:12.794Z,65.64
2022-10-02T06:33:13.104Z,65.54
2022-10-02T06:34:13.381Z,65.51
2022-10-02T06:35:13.689Z,65.41
2022-10-02T06:36:13.899Z,65.41
2022-10-02T06:37:14.263Z,65.31
2022-10-02T06:38:14.592Z,65.31
2022-10-02T06:39:14.902Z,65.31
2022-10-02T06:40:15.215Z,65.31
2022-10-02T06:41:15.434Z,65.31
2022-10-02T06:42:15.837Z,65.31
2022-10-02T06:43:16.010Z,65.31
2022-10-02T06:44:16.355Z,65.31
2022-10-02T06:45:16.719Z,65.31
2022-10-02T06:46:16.944Z,65.31
2022-10-02T06:47:17.173Z,65.41
2022-10-02T06:48:17.413Z,65.41
2022-10-02T06:49:17.642Z,65.41
2022-10-02T06:50:17.914Z,65.38
2022-10-02T06:51:18.228Z,65.38
2022-10-02T06:52:18.566Z,65.38
2022-10-02T06:53:18.861Z,65.38
2022-10-02T06:54:19.198Z,65.38
2022-10-02T06:55:19.531Z,65.38
2022-10-02T06:56:19.871Z,65.28
2022-10-02T06:57:20.224Z,65.28
2022-10-02T06:58:20.448Z,65.28
2022-10-02T06:59:20.772Z,65.28
2022-10-02T07:00:21.141Z,65.28
2022-10-02T07:01:21.488Z,65.28
2022-10-02T07:02:21.742Z,65.28
2022-10-02T07:03:21.921Z,65.28
2022-10-02T07:04:22.155Z,65.28
2022-10-02T07:05:22.509Z,65.28
2022-10-02T07:06:22.784Z,65.28
2022-10-02T07:07:23.142Z,65.28
2022-10-02T07:08:23.412Z,65.28
2022-10-02T07:09:23.786Z,65.25
2022-10-02T07:10:24.100Z,65.25
2022-10-02T07:11:24.394Z,65.25
2022-10-02T07:12:24.614Z,65.25
2022-10-02T07:13:24.944Z,65.25
2022-10-02T07:14:25.235Z,65.35
2022-10-02T07:15:25.575Z,65.25
2022-10-02T07:16:26.012Z,65.35
2022-10-02T07:17:26.209Z,65.25
2022-10-02T07:18:26.533Z,65.25
2022-10-02T07:19:26.768Z,65.25
2022-10-02T07:20:27.016Z,65.15
2022-10-02T07:21:27.374Z,65.15
2022-10-02T07:22:43.980Z,65.15
2022-10-02T07:23:28.977Z,65.15
2022-10-02T07:24:28.229Z,65.15
2022-10-02T07:25:28.448Z,65.15
2022-10-02T07:26:28.774Z,65.25
2022-10-02T07:27:29.134Z,65.25
2022-10-02T07:28:29.517Z,65.25
2022-10-02T07:29:29.727Z,65.25
2022-10-02T07:30:30.013Z,65.25
2022-10-02T07:31:30.308Z,65.22
2022-10-02T07:32:30.533Z,65.22
2022-10-02T07:33:30.759Z,65.12
2022-10-02T07:34:31.106Z,65.12
2022-10-02T07:35:31.425Z,65.01
2022-10-02T07:36:31.674Z,65.01
2022-10-02T07:37:32.033Z,64.92
2022-10-02T07:38:32.369Z,64.89
2022-10-02T07:39:32.706Z,64.78
2022-10-02T07:40:33.044Z,64.78
2022-10-02T07:41:33.384Z,64.69
2022-10-02T07:42:33.762Z,64.58
2022-10-02T07:43:34.058Z,64.45
2022-10-02T07:44:34.397Z,64.35
2022-10-02T07:45:34.743Z,64.25
2022-10-02T07:46:35.354Z,64.12
2022-10-02T07:47:35.327Z,64.02
2022-10-02T07:48:35.638Z,63.92
2022-10-02T07:49:35.964Z,63.89
2022-10-02T07:50:36.296Z,63.89
2022-10-02T07:51:36.642Z,63.79
2022-10-02T07:52:36.889Z,63.79
2022-10-02T07:53:37.106Z,63.79
2022-10-02T07:54:37.457Z,63.76
2022-10-02T07:55:37.800Z,63.85
2022-10-02T07:56:38.407Z,63.85
2022-10-02T07:57:38.418Z,63.85
2022-10-02T07:58:38.721Z,63.96
2022-10-02T07:59:38.936Z,63.96
2022-10-02T08:00:39.277Z,63.96
2022-10-02T08:01:39.606Z,63.96
2022-10-02T08:02:39.956Z,64.06
2022-10-02T08:03:40.312Z,64.06
2022-10-02T08:04:40.641Z,64.06
2022-10-02T08:05:40.873Z,64.16
2022-10-02T08:06:41.092Z,64.16
2022-10-02T08:07:41.331Z,64.26
2022-10-02T08:08:41.679Z,64.26
2022-10-02T08:09:41.970Z,64.26
2022-10-02T08:10:42.307Z,64.26
2022-10-02T08:11:46.086Z,64.26
2022-10-02T08:12:43.942Z,64.26
2022-10-02T08:13:43.168Z,64.26
2022-10-02T08:14:43.497Z,64.26
2022-10-02T08:15:43.827Z,64.26
2022-10-02T08:16:44.213Z,64.26
2022-10-02T08:17:44.511Z,64.26
2022-10-02T08:18:44.821Z,64.16
2022-10-02T08:19:45.161Z,64.16
2022-10-02T08:20:45.492Z,64.08
2022-10-02T08:21:45.828Z,64.06
2022-10-02T08:22:46.168Z,63.82
2022-10-02T08:23:46.498Z,63.49
2022-10-02T08:24:46.843Z,64.07
2022-10-02T08:25:47.195Z,64.07
2022-10-02T08:26:47.400Z,62.56
2022-10-02T08:27:47.814Z,64.06
2022-10-02T08:28:47.967Z,62.51
2022-10-02T08:29:48.301Z,62.60
2022-10-02T08:30:48.619Z,64.07
2022-10-02T08:31:49.012Z,64.06
2022-10-02T08:32:49.299Z,64.45
2022-10-02T08:33:49.510Z,64.56
2022-10-02T08:34:49.850Z,64.16
2022-10-02T08:35:50.082Z,64.16
2022-10-02T08:36:50.320Z,64.07
2022-10-02T08:37:50.671Z,64.16
2022-10-02T08:38:54.660Z,64.16
2022-10-02T08:39:51.150Z,64.17
2022-10-02T08:40:51.405Z,64.17
2022-10-02T08:41:51.640Z,64.16
2022-10-02T08:42:51.910Z,64.06
2022-10-02T08:44:01.382Z,64.07
2022-10-02T08:44:52.546Z,64.06
2022-10-02T08:45:55.588Z,64.07
2022-10-02T08:46:53.133Z,64.46
2022-10-02T08:47:53.477Z,64.55
2022-10-02T08:48:53.797Z,64.55
2022-10-02T08:49:54.046Z,64.14
2022-10-02T08:50:54.277Z,64.43
2022-10-02T08:51:54.516Z,64.33
2022-10-02T08:52:54.734Z,64.33
2022-10-02T08:53:54.995Z,64.33
2022-10-02T08:54:55.245Z,64.22
2022-10-02T08:55:55.493Z,64.09
2022-10-02T08:56:55.743Z,62.82
2022-10-02T08:57:56.024Z,62.70
2022-10-02T08:58:56.205Z,62.51
2022-10-02T08:59:56.447Z,63.48
2022-10-02T09:00:56.724Z,63.43
2022-10-02T09:01:59.903Z,63.33
2022-10-02T09:02:57.258Z,62.84
2022-10-02T09:03:57.468Z,62.70
2022-10-02T09:04:57.707Z,62.50
2022-10-02T09:05:57.946Z,62.51
2022-10-02T09:06:58.175Z,62.51
2022-10-02T09:07:58.427Z,62.55
2022-10-02T09:08:58.687Z,62.50
2022-10-02T09:09:59.006Z,58.79
2022-10-02T09:10:59.227Z,58.59
2022-10-02T09:11:59.489Z,58.01
2022-10-02T09:12:59.901Z,57.04
2022-10-02T09:14:00.079Z,56.40
2022-10-02T09:15:00.319Z,56.49
2022-10-02T09:16:00.602Z,56.64
2022-10-02T09:17:00.809Z,56.27
2022-10-02T09:18:01.054Z,54.75
2022-10-02T09:19:01.378Z,54.74
2022-10-02T09:20:01.633Z,54.72
2022-10-02T09:21:01.867Z,53.12
2022-10-02T09:22:02.196Z,54.15
2022-10-02T09:23:02.568Z,51.18
2022-10-02T09:24:02.872Z,50.37
2022-10-02T09:25:03.080Z,50.20
2022-10-02T09:26:03.416Z,50.81
2022-10-02T09:27:03.758Z,50.98
2022-10-02T09:28:04.156Z,50.02
2022-10-02T09:29:04.347Z,58.59
2022-10-02T09:30:04.689Z,58.60
2022-10-02T09:31:05.010Z,57.33
2022-10-02T09:32:05.356Z,57.81
2022-10-02T09:33:05.719Z,58.22
2022-10-02T09:34:06.018Z,57.53
2022-10-02T09:35:06.228Z,56.65
2022-10-02T09:36:06.570Z,56.26
2022-10-02T09:37:06.877Z,58.82
2022-10-02T09:38:07.231Z,56.48
2022-10-02T09:41:22.869Z,56.42
2022-10-02T09:42:23.213Z,58.64
2022-10-02T09:43:23.549Z,57.84
2022-10-02T09:44:23.884Z,58.15
2022-10-02T09:45:24.253Z,57.84
2022-10-02T09:46:24.555Z,57.81
2022-10-02T09:47:24.870Z,58.59
2022-10-02T09:48:25.223Z,58.11
2022-10-02T09:49:25.431Z,58.22
2022-10-02T09:50:25.751Z,56.33
2022-10-02T09:51:26.084Z,56.38
2022-10-02T09:52:26.401Z,57.86
2022-10-02T09:53:41.604Z,56.26
2022-10-02T09:54:27.022Z,56.26
2022-10-02T09:55:27.354Z,50.20
2022-10-02T09:56:27.711Z,56.25
2022-10-02T09:57:27.928Z,56.35
2022-10-02T09:58:28.258Z,57.26
2022-10-02T09:59:28.590Z,51.56
2022-10-02T10:00:28.941Z,56.28
2022-10-02T10:01:29.303Z,57.90
2022-10-02T10:02:29.533Z,56.26
2022-10-02T10:03:29.756Z,56.30
2022-10-02T10:04:47.616Z,58.02
2022-10-02T10:05:31.333Z,56.30
2022-10-02T10:06:30.584Z,56.45
2022-10-02T10:07:30.923Z,57.07
2022-10-02T10:08:31.336Z,59.44
2022-10-02T10:09:55.376Z,57.38
2022-10-02T10:10:33.570Z,59.52
2022-10-02T10:11:47.759Z,59.62
2022-10-02T10:12:32.565Z,60.21
2022-10-02T10:13:32.884Z,59.54
2022-10-02T10:14:33.021Z,59.44
2022-10-02T10:15:33.240Z,56.65
2022-10-02T10:16:33.989Z,56.25
2022-10-02T10:18:34.011Z,59.45
2022-10-02T10:19:34.344Z,56.31
2022-10-02T10:20:34.664Z,56.28
2022-10-02T10:21:35.383Z,56.51
2022-10-02T10:22:35.333Z,56.67
2022-10-02T10:23:35.687Z,56.86
2022-10-02T10:24:35.974Z,59.99
2022-10-02T10:25:36.308Z,59.50
2022-10-02T10:26:36.648Z,59.50
2022-10-02T10:27:36.975Z,59.40
2022-10-02T10:28:37.319Z,60.25
2022-10-02T10:29:37.661Z,59.57
2022-10-02T10:30:38.006Z,59.38
2022-10-02T10:31:38.471Z,57.04
2022-10-02T10:32:38.658Z,57.03
2022-10-02T10:33:46.557Z,60.16
2022-10-02T10:34:39.244Z,59.39
2022-10-02T10:35:39.555Z,61.16
2022-10-02T10:36:43.325Z,61.33
2022-10-02T10:37:41.122Z,61.15
2022-10-02T10:38:40.371Z,61.34
2022-10-02T10:39:40.675Z,60.16
2022-10-02T10:40:41.017Z,61.04
2022-10-02T10:41:41.370Z,61.23
2022-10-02T10:43:05.936Z,61.33
2022-10-02T10:43:42.946Z,60.18
2022-10-02T10:44:42.174Z,60.75
2022-10-02T10:45:42.559Z,50.06
2022-10-02T10:46:42.899Z,50.10
2022-10-02T10:47:43.208Z,50.39
2022-10-02T10:48:47.189Z,50.49
2022-10-02T10:49:44.888Z,62.73
2022-10-02T10:50:44.104Z,50.20
2022-10-02T10:51:44.476Z,50.80
2022-10-02T10:52:44.788Z,50.95
2022-10-02T10:53:45.131Z,62.87
2022-10-02T10:54:45.398Z,63.39
2022-10-02T10:55:45.566Z,63.00
2022-10-02T10:56:45.982Z,63.28
2022-10-02T10:57:46.264Z,62.50
2022-10-02T10:58:46.440Z,62.52
2022-10-02T10:59:46.692Z,63.28
2022-10-02T11:00:47.055Z,62.52
2022-10-02T11:01:47.216Z,63.28
2022-10-02T11:02:47.556Z,63.31
2022-10-02T11:03:47.907Z,63.38
2022-10-02T11:04:48.261Z,62.51
2022-10-02T11:05:48.581Z,63.48
2022-10-02T11:06:48.889Z,62.51
2022-10-02T11:07:49.198Z,63.28
2022-10-02T11:08:49.553Z,62.70
2022-10-02T11:09:49.911Z,62.90
2022-10-02T11:10:50.231Z,62.50
2022-10-02T11:11:50.521Z,50.32
2022-10-02T11:12:50.862Z,50.30
2022-10-02T11:13:51.198Z,61.04
2022-10-02T11:14:51.538Z,60.94
2022-10-02T11:15:51.891Z,61.23
2022-10-02T11:16:52.225Z,61.10
2022-10-02T11:17:52.510Z,59.43
2022-10-02T11:18:52.905Z,59.43
2022-10-02T11:19:53.232Z,59.38
2022-10-02T11:20:53.574Z,59.90
2022-10-02T11:21:53.769Z,60.56
2022-10-02T11:22:54.090Z,59.38
2022-10-02T11:23:54.434Z,59.38
2022-10-02T11:24:54.780Z,57.23
2022-10-02T11:25:55.069Z,56.26
2022-10-02T11:26:55.433Z,57.08
2022-10-02T11:30:16.807Z,56.65
2022-10-02T11:31:17.145Z,57.23
2022-10-02T11:32:17.341Z,57.15
2022-10-02T11:33:17.667Z,57.03
2022-10-02T11:34:17.884Z,56.68
2022-10-02T11:35:18.258Z,56.27
2022-10-02T11:36:18.555Z,51.97
2022-10-02T11:37:18.794Z,51.77
2022-10-02T11:38:19.135Z,51.75
2022-10-02T11:39:19.366Z,52.40
2022-10-02T11:40:28.585Z,52.64
2022-10-02T11:41:19.957Z,56.84
2022-10-02T11:42:20.287Z,56.26
2022-10-02T11:43:20.539Z,53.33
2022-10-02T11:44:20.856Z,53.52
2022-10-02T11:45:21.129Z,56.25
2022-10-02T11:46:21.438Z,53.74
2022-10-02T11:47:21.769Z,56.35
2022-10-02T11:48:22.067Z,57.03
2022-10-02T11:49:22.466Z,56.45
2022-10-02T11:50:22.680Z,57.24
2022-10-02T11:51:22.994Z,57.03
2022-10-02T11:52:23.284Z,56.64
2022-10-02T11:53:23.463Z,57.08
2022-10-02T11:54:30.937Z,56.93
2022-10-02T11:55:23.917Z,56.35
2022-10-02T11:56:24.237Z,57.81
2022-10-02T11:57:24.602Z,56.46
2022-10-02T11:58:24.811Z,56.25
2022-10-02T11:59:25.171Z,56.26
2022-10-02T12:00:25.402Z,56.25
2022-10-02T12:01:25.632Z,56.25
2022-10-02T12:02:25.934Z,57.23
2022-10-02T12:03:26.158Z,57.04
2022-10-02T12:04:26.361Z,56.65
2022-10-02T12:05:26.610Z,54.30
2022-10-02T12:06:26.919Z,57.23
2022-10-02T12:07:27.273Z,56.84
2022-10-02T12:08:27.522Z,54.49
2022-10-02T12:09:34.890Z,53.52
2022-10-02T12:10:28.180Z,53.91
2022-10-02T12:11:28.416Z,54.30
2022-10-02T12:12:28.754Z,56.45
2022-10-02T12:13:28.981Z,53.12
2022-10-02T12:14:29.290Z,54.30
2022-10-02T12:15:29.452Z,53.32
2022-10-02T12:16:29.834Z,53.14
2022-10-02T12:17:30.111Z,54.08
2022-10-02T12:18:30.344Z,53.52
2022-10-02T12:19:30.690Z,53.52
2022-10-02T12:20:30.910Z,53.17
2022-10-02T12:21:31.256Z,53.30
2022-10-02T12:22:31.563Z,53.18
2022-10-02T12:23:31.852Z,53.59
2022-10-02T12:24:32.206Z,56.73
2022-10-02T12:25:32.531Z,53.89
2022-10-02T12:26:32.854Z,56.33
2022-10-02T12:27:33.181Z,54.13
2022-10-02T12:28:33.609Z,56.27
2022-10-02T12:29:33.774Z,54.50
2022-10-02T12:30:34.125Z,54.71
2022-10-02T12:31:34.870Z,56.49
2022-10-02T12:32:34.754Z,56.30
2022-10-02T12:33:35.086Z,56.36
2022-10-02T12:34:35.423Z,56.31
2022-10-02T12:35:35.791Z,57.86
2022-10-02T12:36:36.082Z,57.05
2022-10-02T12:37:36.427Z,56.75
2022-10-02T12:38:36.775Z,57.08
2022-10-02T12:39:36.987Z,57.13
2022-10-02T12:40:37.244Z,57.03
2022-10-02T12:41:37.807Z,57.25
2022-10-02T12:42:37.830Z,57.03
2022-10-02T12:43:38.189Z,57.03
2022-10-02T12:44:38.465Z,57.03
2022-10-02T12:45:38.911Z,54.00
2022-10-02T12:46:39.065Z,53.92
2022-10-02T12:47:39.394Z,56.27
2022-10-02T12:48:39.775Z,56.25
2022-10-02T12:49:40.054Z,53.92
2022-10-02T12:50:40.305Z,53.91
2022-10-02T12:51:41.030Z,53.53
2022-10-02T12:52:40.857Z,56.26
2022-10-02T12:53:41.219Z,56.33
2022-10-02T12:54:41.405Z,56.56
2022-10-02T12:55:41.775Z,53.91
2022-10-02T12:56:42.083Z,56.27
2022-10-02T12:57:42.436Z,56.25
2022-10-02T12:58:42.766Z,56.31
2022-10-02T12:59:43.065Z,56.46
2022-10-02T13:00:43.298Z,56.46
2022-10-02T13:01:43.701Z,56.76